sensor_id;sensor_type;location;lat;lon;timestamp;P1;durP1;ratioP1;P2;durP2;ratioP2
40116;SDS011;25829;50.228;18.936;2023-06-19T00:01:47;10.05;;;6.80;;
40116;SDS011;25829;50.228;18.936;2023-06-19T00:04:50;8.20;;;6.85;;
40116;SDS011;25829;50.228;18.936;2023-06-19T00:07:50;7.30;;;6.55;;
40116;SDS011;25829;50.228;18.936;2023-06-19T00:10:51;7.28;;;6.28;;
40116;SDS011;25829;50.228;18.936;2023-06-19T00:13:55;7.32;;;6.50;;
40116;SDS011;25829;50.228;18.936;2023-06-19T00:16:56;7.82;;;6.53;;
40116;SDS011;25829;50.228;18.936;2023-06-19T00:20:03;8.20;;;6.57;;
40116;SDS011;25829;50.228;18.936;2023-06-19T00:23:05;7.63;;;6.82;;
40116;SDS011;25829;50.228;18.936;2023-06-19T00:26:10;7.57;;;6.30;;
40116;SDS011;25829;50.228;18.936;2023-06-19T00:29:20;7.45;;;6.70;;
40116;SDS011;25829;50.228;18.936;2023-06-19T00:32:21;7.00;;;6.35;;
40116;SDS011;25829;50.228;18.936;2023-06-19T00:35:25;7.43;;;6.72;;
40116;SDS011;25829;50.228;18.936;2023-06-19T00:38:28;8.57;;;6.90;;
40116;SDS011;25829;50.228;18.936;2023-06-19T00:41:29;7.78;;;6.78;;
40116;SDS011;25829;50.228;18.936;2023-06-19T00:44:31;10.80;;;6.45;;
40116;SDS011;25829;50.228;18.936;2023-06-19T00:47:33;7.03;;;6.32;;
40116;SDS011;25829;50.228;18.936;2023-06-19T00:50:34;8.90;;;6.50;;
40116;SDS011;25829;50.228;18.936;2023-06-19T00:53:37;7.03;;;6.25;;
40116;SDS011;25829;50.228;18.936;2023-06-19T00:56:44;7.65;;;6.88;;
40116;SDS011;25829;50.228;18.936;2023-06-19T00:59:45;7.90;;;7.10;;
40116;SDS011;25829;50.228;18.936;2023-06-19T01:02:48;7.65;;;6.57;;
40116;SDS011;25829;50.228;18.936;2023-06-19T01:05:59;7.50;;;6.75;;
40116;SDS011;25829;50.228;18.936;2023-06-19T01:09:02;9.73;;;6.88;;
40116;SDS011;25829;50.228;18.936;2023-06-19T01:12:13;8.02;;;7.22;;
40116;SDS011;25829;50.228;18.936;2023-06-19T01:15:18;7.70;;;6.82;;
40116;SDS011;25829;50.228;18.936;2023-06-19T01:18:30;8.48;;;7.03;;
40116;SDS011;25829;50.228;18.936;2023-06-19T01:21:32;8.18;;;6.82;;
40116;SDS011;25829;50.228;18.936;2023-06-19T01:24:33;8.60;;;6.65;;
40116;SDS011;25829;50.228;18.936;2023-06-19T01:27:35;9.65;;;7.28;;
40116;SDS011;25829;50.228;18.936;2023-06-19T01:30:39;7.90;;;6.70;;
40116;SDS011;25829;50.228;18.936;2023-06-19T01:33:42;8.50;;;7.60;;
40116;SDS011;25829;50.228;18.936;2023-06-19T01:37:14;11.50;;;7.75;;
40116;SDS011;25829;50.228;18.936;2023-06-19T01:40:16;11.05;;;7.97;;
40116;SDS011;25829;50.228;18.936;2023-06-19T01:43:31;11.20;;;7.50;;
40116;SDS011;25829;50.228;18.936;2023-06-19T01:46:50;8.93;;;8.00;;
40116;SDS011;25829;50.228;18.936;2023-06-19T01:49:51;9.82;;;8.18;;
40116;SDS011;25829;50.228;18.936;2023-06-19T01:53:03;10.15;;;7.47;;
40116;SDS011;25829;50.228;18.936;2023-06-19T01:56:04;8.43;;;7.45;;
40116;SDS011;25829;50.228;18.936;2023-06-19T01:59:05;8.80;;;7.57;;
40116;SDS011;25829;50.228;18.936;2023-06-19T02:02:06;8.52;;;7.63;;
40116;SDS011;25829;50.228;18.936;2023-06-19T02:05:12;9.38;;;7.85;;
40116;SDS011;25829;50.228;18.936;2023-06-19T02:08:19;11.85;;;8.63;;
40116;SDS011;25829;50.228;18.936;2023-06-19T02:11:20;11.02;;;8.88;;
40116;SDS011;25829;50.228;18.936;2023-06-19T02:14:28;10.45;;;8.15;;
40116;SDS011;25829;50.228;18.936;2023-06-19T02:17:32;11.30;;;8.77;;
40116;SDS011;25829;50.228;18.936;2023-06-19T02:20:33;9.25;;;8.27;;
40116;SDS011;25829;50.228;18.936;2023-06-19T02:23:54;9.60;;;7.93;;
40116;SDS011;25829;50.228;18.936;2023-06-19T02:27:05;8.35;;;7.32;;
40116;SDS011;25829;50.228;18.936;2023-06-19T02:30:18;9.18;;;7.50;;
40116;SDS011;25829;50.228;18.936;2023-06-19T02:33:25;9.40;;;8.10;;
40116;SDS011;25829;50.228;18.936;2023-06-19T02:36:26;9.02;;;8.02;;
40116;SDS011;25829;50.228;18.936;2023-06-19T02:39:30;8.73;;;7.90;;
40116;SDS011;25829;50.228;18.936;2023-06-19T02:42:31;11.43;;;7.68;;
40116;SDS011;25829;50.228;18.936;2023-06-19T02:45:31;9.20;;;8.30;;
40116;SDS011;25829;50.228;18.936;2023-06-19T02:48:32;8.40;;;7.60;;
40116;SDS011;25829;50.228;18.936;2023-06-19T02:51:36;8.05;;;7.25;;
40116;SDS011;25829;50.228;18.936;2023-06-19T02:54:37;9.07;;;8.18;;
40116;SDS011;25829;50.228;18.936;2023-06-19T02:57:46;8.90;;;8.00;;
40116;SDS011;25829;50.228;18.936;2023-06-19T03:00:47;8.98;;;7.57;;
40116;SDS011;25829;50.228;18.936;2023-06-19T03:03:50;10.32;;;7.78;;
40116;SDS011;25829;50.228;18.936;2023-06-19T03:06:56;10.40;;;7.97;;
40116;SDS011;25829;50.228;18.936;2023-06-19T03:09:56;10.07;;;8.68;;
40116;SDS011;25829;50.228;18.936;2023-06-19T03:12:57;10.38;;;7.78;;
40116;SDS011;25829;50.228;18.936;2023-06-19T03:16:02;9.10;;;7.75;;
40116;SDS011;25829;50.228;18.936;2023-06-19T03:35:04;8.70;;;7.80;;
40116;SDS011;25829;50.228;18.936;2023-06-19T03:38:09;9.20;;;7.60;;
40116;SDS011;25829;50.228;18.936;2023-06-19T03:41:10;8.57;;;7.40;;
40116;SDS011;25829;50.228;18.936;2023-06-19T03:44:11;8.80;;;7.90;;
40116;SDS011;25829;50.228;18.936;2023-06-19T03:47:12;9.43;;;8.15;;
40116;SDS011;25829;50.228;18.936;2023-06-19T03:50:13;11.55;;;8.20;;
40116;SDS011;25829;50.228;18.936;2023-06-19T03:53:14;9.98;;;7.63;;
40116;SDS011;25829;50.228;18.936;2023-06-19T03:56:18;12.57;;;8.57;;
40116;SDS011;25829;50.228;18.936;2023-06-19T03:59:18;8.43;;;7.40;;
40116;SDS011;25829;50.228;18.936;2023-06-19T04:02:19;9.95;;;7.68;;
40116;SDS011;25829;50.228;18.936;2023-06-19T04:05:20;8.82;;;7.65;;
40116;SDS011;25829;50.228;18.936;2023-06-19T04:08:21;9.50;;;7.95;;
40116;SDS011;25829;50.228;18.936;2023-06-19T04:11:22;9.95;;;8.43;;
40116;SDS011;25829;50.228;18.936;2023-06-19T04:14:23;10.10;;;8.10;;
40116;SDS011;25829;50.228;18.936;2023-06-19T04:17:24;10.50;;;8.88;;
40116;SDS011;25829;50.228;18.936;2023-06-19T04:20:25;9.75;;;8.70;;
40116;SDS011;25829;50.228;18.936;2023-06-19T04:23:26;11.20;;;8.20;;
40116;SDS011;25829;50.228;18.936;2023-06-19T04:26:27;11.45;;;8.48;;
40116;SDS011;25829;50.228;18.936;2023-06-19T04:29:28;10.55;;;7.97;;
40116;SDS011;25829;50.228;18.936;2023-06-19T04:32:32;9.23;;;8.23;;
40116;SDS011;25829;50.228;18.936;2023-06-19T04:35:35;10.23;;;8.98;;
40116;SDS011;25829;50.228;18.936;2023-06-19T04:38:42;11.25;;;9.20;;
40116;SDS011;25829;50.228;18.936;2023-06-19T04:41:44;13.88;;;8.80;;
40116;SDS011;25829;50.228;18.936;2023-06-19T04:44:48;10.40;;;8.98;;
40116;SDS011;25829;50.228;18.936;2023-06-19T04:47:49;12.85;;;9.75;;
40116;SDS011;25829;50.228;18.936;2023-06-19T04:50:51;10.70;;;9.50;;
40116;SDS011;25829;50.228;18.936;2023-06-19T04:53:52;11.15;;;9.68;;
40116;SDS011;25829;50.228;18.936;2023-06-19T04:57:02;13.10;;;10.88;;
40116;SDS011;25829;50.228;18.936;2023-06-19T05:26:57;10.30;;;8.25;;
40116;SDS011;25829;50.228;18.936;2023-06-19T05:30:04;11.35;;;8.35;;
40116;SDS011;25829;50.228;18.936;2023-06-19T05:33:08;9.93;;;8.15;;
40116;SDS011;25829;50.228;18.936;2023-06-19T05:36:10;11.20;;;8.20;;
40116;SDS011;25829;50.228;18.936;2023-06-19T05:39:19;10.23;;;8.25;;
40116;SDS011;25829;50.228;18.936;2023-06-19T05:42:20;9.00;;;8.13;;
40116;SDS011;25829;50.228;18.936;2023-06-19T05:45:30;9.45;;;7.93;;
40116;SDS011;25829;50.228;18.936;2023-06-19T05:48:35;11.93;;;8.00;;
40116;SDS011;25829;50.228;18.936;2023-06-19T05:51:36;8.75;;;7.05;;
40116;SDS011;25829;50.228;18.936;2023-06-19T05:54:46;9.32;;;7.38;;
40116;SDS011;25829;50.228;18.936;2023-06-19T05:57:47;8.38;;;7.47;;
40116;SDS011;25829;50.228;18.936;2023-06-19T06:00:48;8.52;;;7.43;;
40116;SDS011;25829;50.228;18.936;2023-06-19T06:04:05;9.43;;;8.35;;
40116;SDS011;25829;50.228;18.936;2023-06-19T06:07:14;9.63;;;8.10;;
40116;SDS011;25829;50.228;18.936;2023-06-19T06:10:24;9.15;;;7.88;;
40116;SDS011;25829;50.228;18.936;2023-06-19T06:13:28;8.32;;;7.45;;
40116;SDS011;25829;50.228;18.936;2023-06-19T06:16:29;11.63;;;7.97;;
40116;SDS011;25829;50.228;18.936;2023-06-19T06:19:30;9.98;;;7.82;;
40116;SDS011;25829;50.228;18.936;2023-06-19T06:22:31;8.80;;;7.82;;
40116;SDS011;25829;50.228;18.936;2023-06-19T06:29:04;8.93;;;7.28;;
40116;SDS011;25829;50.228;18.936;2023-06-19T06:32:11;9.18;;;7.20;;
40116;SDS011;25829;50.228;18.936;2023-06-19T06:46:29;9.10;;;6.90;;
40116;SDS011;25829;50.228;18.936;2023-06-19T06:57:19;8.18;;;6.28;;
40116;SDS011;25829;50.228;18.936;2023-06-19T07:03:45;7.55;;;6.18;;
40116;SDS011;25829;50.228;18.936;2023-06-19T07:06:46;7.38;;;6.35;;
40116;SDS011;25829;50.228;18.936;2023-06-19T07:09:48;14.82;;;6.57;;
40116;SDS011;25829;50.228;18.936;2023-06-19T07:13:01;7.90;;;6.10;;
40116;SDS011;25829;50.228;18.936;2023-06-19T07:16:02;11.30;;;6.03;;
40116;SDS011;25829;50.228;18.936;2023-06-19T07:19:05;8.02;;;6.13;;
40116;SDS011;25829;50.228;18.936;2023-06-19T07:22:05;7.60;;;5.85;;
40116;SDS011;25829;50.228;18.936;2023-06-19T07:25:06;8.18;;;5.93;;
40116;SDS011;25829;50.228;18.936;2023-06-19T07:28:08;6.60;;;6.00;;
40116;SDS011;25829;50.228;18.936;2023-06-19T07:31:11;8.60;;;6.05;;
40116;SDS011;25829;50.228;18.936;2023-06-19T07:34:13;7.50;;;5.85;;
40116;SDS011;25829;50.228;18.936;2023-06-19T07:45:27;7.07;;;6.25;;
40116;SDS011;25829;50.228;18.936;2023-06-19T07:48:28;8.15;;;5.68;;
40116;SDS011;25829;50.228;18.936;2023-06-19T07:51:40;8.70;;;6.25;;
40116;SDS011;25829;50.228;18.936;2023-06-19T07:55:26;6.22;;;5.60;;
40116;SDS011;25829;50.228;18.936;2023-06-19T07:58:07;7.45;;;5.85;;
40116;SDS011;25829;50.228;18.936;2023-06-19T08:02:34;6.47;;;5.50;;
40116;SDS011;25829;50.228;18.936;2023-06-19T08:05:46;5.38;;;4.88;;
40116;SDS011;25829;50.228;18.936;2023-06-19T08:08:54;4.85;;;4.35;;
40116;SDS011;25829;50.228;18.936;2023-06-19T08:12:23;5.80;;;5.18;;
40116;SDS011;25829;50.228;18.936;2023-06-19T08:15:24;6.85;;;5.03;;
40116;SDS011;25829;50.228;18.936;2023-06-19T08:18:33;5.57;;;5.00;;
40116;SDS011;25829;50.228;18.936;2023-06-19T08:21:43;5.63;;;4.97;;
40116;SDS011;25829;50.228;18.936;2023-06-19T08:24:44;6.63;;;5.25;;
40116;SDS011;25829;50.228;18.936;2023-06-19T08:27:51;5.50;;;4.93;;
40116;SDS011;25829;50.228;18.936;2023-06-19T08:34:17;5.80;;;4.95;;
40116;SDS011;25829;50.228;18.936;2023-06-19T08:44:48;5.03;;;4.53;;
40116;SDS011;25829;50.228;18.936;2023-06-19T08:48:41;6.03;;;5.53;;
40116;SDS011;25829;50.228;18.936;2023-06-19T08:51:45;6.68;;;5.20;;
40116;SDS011;25829;50.228;18.936;2023-06-19T08:54:46;6.32;;;5.38;;
40116;SDS011;25829;50.228;18.936;2023-06-19T08:57:47;9.15;;;5.10;;
40116;SDS011;25829;50.228;18.936;2023-06-19T09:00:51;6.55;;;5.55;;
40116;SDS011;25829;50.228;18.936;2023-06-19T09:15:23;6.55;;;5.20;;
40116;SDS011;25829;50.228;18.936;2023-06-19T09:18:24;5.10;;;4.60;;
40116;SDS011;25829;50.228;18.936;2023-06-19T09:21:24;4.90;;;4.50;;
40116;SDS011;25829;50.228;18.936;2023-06-19T09:24:32;7.00;;;4.53;;
40116;SDS011;25829;50.228;18.936;2023-06-19T09:27:38;5.05;;;4.40;;
40116;SDS011;25829;50.228;18.936;2023-06-19T09:30:50;5.20;;;4.00;;
40116;SDS011;25829;50.228;18.936;2023-06-19T09:33:52;4.43;;;4.03;;
40116;SDS011;25829;50.228;18.936;2023-06-19T09:36:53;4.45;;;4.07;;
40116;SDS011;25829;50.228;18.936;2023-06-19T09:42:58;4.97;;;4.55;;
40116;SDS011;25829;50.228;18.936;2023-06-19T09:46:04;6.70;;;4.55;;
40116;SDS011;25829;50.228;18.936;2023-06-19T09:49:06;4.65;;;4.28;;
40116;SDS011;25829;50.228;18.936;2023-06-19T09:52:08;4.22;;;3.83;;
40116;SDS011;25829;50.228;18.936;2023-06-19T09:55:12;4.75;;;4.30;;
40116;SDS011;25829;50.228;18.936;2023-06-19T09:58:22;4.53;;;4.13;;
40116;SDS011;25829;50.228;18.936;2023-06-19T10:01:24;4.95;;;4.55;;
40116;SDS011;25829;50.228;18.936;2023-06-19T10:04:26;6.60;;;4.20;;
40116;SDS011;25829;50.228;18.936;2023-06-19T10:08:12;4.68;;;4.07;;
40116;SDS011;25829;50.228;18.936;2023-06-19T10:10:54;5.22;;;4.32;;
40116;SDS011;25829;50.228;18.936;2023-06-19T10:17:19;5.03;;;4.53;;
40116;SDS011;25829;50.228;18.936;2023-06-19T10:23:35;6.22;;;4.35;;
40116;SDS011;25829;50.228;18.936;2023-06-19T10:26:43;5.50;;;4.63;;
40116;SDS011;25829;50.228;18.936;2023-06-19T10:29:58;5.45;;;4.95;;
40116;SDS011;25829;50.228;18.936;2023-06-19T10:32:59;5.43;;;4.93;;
40116;SDS011;25829;50.228;18.936;2023-06-19T10:39:17;6.30;;;4.47;;
40116;SDS011;25829;50.228;18.936;2023-06-19T10:42:18;5.43;;;4.57;;
40116;SDS011;25829;50.228;18.936;2023-06-19T10:45:18;5.35;;;4.85;;
40116;SDS011;25829;50.228;18.936;2023-06-19T10:48:22;5.57;;;5.05;;
40116;SDS011;25829;50.228;18.936;2023-06-19T10:51:24;8.05;;;5.13;;
40116;SDS011;25829;50.228;18.936;2023-06-19T10:54:27;5.75;;;4.60;;
40116;SDS011;25829;50.228;18.936;2023-06-19T10:57:29;5.30;;;4.78;;
40116;SDS011;25829;50.228;18.936;2023-06-19T11:00:34;6.95;;;5.28;;
40116;SDS011;25829;50.228;18.936;2023-06-19T11:03:35;7.60;;;4.88;;
40116;SDS011;25829;50.228;18.936;2023-06-19T11:06:36;4.93;;;3.97;;
40116;SDS011;25829;50.228;18.936;2023-06-19T11:09:40;7.10;;;4.68;;
40116;SDS011;25829;50.228;18.936;2023-06-19T11:12:42;6.47;;;4.35;;
40116;SDS011;25829;50.228;18.936;2023-06-19T11:15:43;5.43;;;4.82;;
40116;SDS011;25829;50.228;18.936;2023-06-19T11:18:45;5.95;;;4.22;;
40116;SDS011;25829;50.228;18.936;2023-06-19T11:21:48;4.97;;;4.47;;
40116;SDS011;25829;50.228;18.936;2023-06-19T11:24:50;4.28;;;3.88;;
40116;SDS011;25829;50.228;18.936;2023-06-19T11:27:51;7.05;;;4.00;;
40116;SDS011;25829;50.228;18.936;2023-06-19T11:31:06;6.10;;;4.78;;
40116;SDS011;25829;50.228;18.936;2023-06-19T11:34:14;5.40;;;4.28;;
40116;SDS011;25829;50.228;18.936;2023-06-19T11:37:16;4.25;;;3.88;;
40116;SDS011;25829;50.228;18.936;2023-06-19T11:40:23;4.03;;;3.63;;
40116;SDS011;25829;50.228;18.936;2023-06-19T11:43:30;5.65;;;3.67;;
40116;SDS011;25829;50.228;18.936;2023-06-19T11:46:32;4.60;;;4.05;;
40116;SDS011;25829;50.228;18.936;2023-06-19T11:52:46;4.75;;;4.30;;
40116;SDS011;25829;50.228;18.936;2023-06-19T11:55:49;5.28;;;4.78;;
40116;SDS011;25829;50.228;18.936;2023-06-19T11:58:50;4.15;;;3.78;;
40116;SDS011;25829;50.228;18.936;2023-06-19T12:01:51;4.70;;;4.05;;
40116;SDS011;25829;50.228;18.936;2023-06-19T12:04:52;4.45;;;4.00;;
40116;SDS011;25829;50.228;18.936;2023-06-19T12:07:53;4.30;;;4.00;;
40116;SDS011;25829;50.228;18.936;2023-06-19T12:10:54;4.30;;;3.90;;
40116;SDS011;25829;50.228;18.936;2023-06-19T12:13:57;4.53;;;4.10;;
40116;SDS011;25829;50.228;18.936;2023-06-19T12:16:58;4.15;;;3.75;;
40116;SDS011;25829;50.228;18.936;2023-06-19T12:20:02;4.65;;;4.25;;
40116;SDS011;25829;50.228;18.936;2023-06-19T12:23:07;4.57;;;4.10;;
40116;SDS011;25829;50.228;18.936;2023-06-19T12:26:07;5.38;;;4.00;;
40116;SDS011;25829;50.228;18.936;2023-06-19T12:29:08;4.63;;;4.22;;
40116;SDS011;25829;50.228;18.936;2023-06-19T12:32:09;4.40;;;4.00;;
40116;SDS011;25829;50.228;18.936;2023-06-19T12:35:10;4.47;;;4.07;;
40116;SDS011;25829;50.228;18.936;2023-06-19T12:38:19;4.88;;;4.47;;
40116;SDS011;25829;50.228;18.936;2023-06-19T12:41:24;5.25;;;4.00;;
40116;SDS011;25829;50.228;18.936;2023-06-19T12:44:27;4.35;;;3.95;;
40116;SDS011;25829;50.228;18.936;2023-06-19T12:47:28;4.93;;;3.70;;
40116;SDS011;25829;50.228;18.936;2023-06-19T12:50:29;4.60;;;4.20;;
40116;SDS011;25829;50.228;18.936;2023-06-19T12:53:34;4.32;;;3.92;;
40116;SDS011;25829;50.228;18.936;2023-06-19T12:56:35;4.57;;;4.13;;
40116;SDS011;25829;50.228;18.936;2023-06-19T12:59:36;6.65;;;4.10;;
40116;SDS011;25829;50.228;18.936;2023-06-19T13:02:40;4.32;;;3.92;;
40116;SDS011;25829;50.228;18.936;2023-06-19T13:05:43;4.57;;;4.00;;
40116;SDS011;25829;50.228;18.936;2023-06-19T13:12:14;4.40;;;4.00;;
40116;SDS011;25829;50.228;18.936;2023-06-19T13:15:15;9.48;;;4.00;;
40116;SDS011;25829;50.228;18.936;2023-06-19T13:18:17;4.30;;;3.90;;
40116;SDS011;25829;50.228;18.936;2023-06-19T13:21:18;4.38;;;3.97;;
40116;SDS011;25829;50.228;18.936;2023-06-19T13:24:22;5.32;;;3.67;;
40116;SDS011;25829;50.228;18.936;2023-06-19T13:55:19;3.67;;;3.38;;
40116;SDS011;25829;50.228;18.936;2023-06-19T13:58:20;6.78;;;2.90;;
40116;SDS011;25829;50.228;18.936;2023-06-19T14:01:29;3.60;;;3.25;;
40116;SDS011;25829;50.228;18.936;2023-06-19T14:04:30;3.45;;;3.15;;
40116;SDS011;25829;50.228;18.936;2023-06-19T14:07:32;3.33;;;3.03;;
40116;SDS011;25829;50.228;18.936;2023-06-19T14:10:33;4.13;;;3.65;;
40116;SDS011;25829;50.228;18.936;2023-06-19T14:13:33;3.65;;;3.35;;
40116;SDS011;25829;50.228;18.936;2023-06-19T14:16:34;3.70;;;3.40;;
40116;SDS011;25829;50.228;18.936;2023-06-19T14:19:35;3.60;;;3.30;;
40116;SDS011;25829;50.228;18.936;2023-06-19T14:22:36;4.65;;;3.70;;
40116;SDS011;25829;50.228;18.936;2023-06-19T14:29:00;3.88;;;3.45;;
40116;SDS011;25829;50.228;18.936;2023-06-19T14:36:18;3.15;;;2.92;;
40116;SDS011;25829;50.228;18.936;2023-06-19T14:39:20;5.75;;;3.78;;
40116;SDS011;25829;50.228;18.936;2023-06-19T14:42:24;3.60;;;3.30;;
40116;SDS011;25829;50.228;18.936;2023-06-19T14:45:25;4.03;;;3.63;;
40116;SDS011;25829;50.228;18.936;2023-06-19T14:48:31;3.40;;;3.10;;
40116;SDS011;25829;50.228;18.936;2023-06-19T14:51:32;4.43;;;3.42;;
40116;SDS011;25829;50.228;18.936;2023-06-19T14:54:34;3.90;;;3.00;;
40116;SDS011;25829;50.228;18.936;2023-06-19T14:57:38;3.55;;;3.25;;
40116;SDS011;25829;50.228;18.936;2023-06-19T15:00:39;3.97;;;3.28;;
40116;SDS011;25829;50.228;18.936;2023-06-19T15:03:47;3.78;;;3.35;;
40116;SDS011;25829;50.228;18.936;2023-06-19T15:06:47;4.35;;;3.75;;
40116;SDS011;25829;50.228;18.936;2023-06-19T15:09:48;3.80;;;3.38;;
40116;SDS011;25829;50.228;18.936;2023-06-19T15:12:49;3.50;;;3.00;;
40116;SDS011;25829;50.228;18.936;2023-06-19T15:15:50;4.22;;;3.80;;
40116;SDS011;25829;50.228;18.936;2023-06-19T15:18:53;3.67;;;3.38;;
40116;SDS011;25829;50.228;18.936;2023-06-19T15:21:54;3.72;;;3.33;;
40116;SDS011;25829;50.228;18.936;2023-06-19T15:24:55;4.20;;;3.80;;
40116;SDS011;25829;50.228;18.936;2023-06-19T15:27:56;5.10;;;3.38;;
40116;SDS011;25829;50.228;18.936;2023-06-19T15:30:56;4.45;;;3.65;;
40116;SDS011;25829;50.228;18.936;2023-06-19T15:33:57;3.92;;;3.35;;
40116;SDS011;25829;50.228;18.936;2023-06-19T15:36:58;3.35;;;3.05;;
40116;SDS011;25829;50.228;18.936;2023-06-19T15:39:58;3.78;;;3.47;;
40116;SDS011;25829;50.228;18.936;2023-06-19T15:43:01;3.72;;;3.42;;
40116;SDS011;25829;50.228;18.936;2023-06-19T15:46:02;4.10;;;3.08;;
40116;SDS011;25829;50.228;18.936;2023-06-19T15:49:06;3.67;;;3.38;;
40116;SDS011;25829;50.228;18.936;2023-06-19T15:52:16;3.60;;;3.30;;
40116;SDS011;25829;50.228;18.936;2023-06-19T15:55:17;3.50;;;3.20;;
40116;SDS011;25829;50.228;18.936;2023-06-19T15:58:18;3.80;;;3.50;;
40116;SDS011;25829;50.228;18.936;2023-06-19T16:01:18;3.95;;;3.65;;
40116;SDS011;25829;50.228;18.936;2023-06-19T16:04:19;3.92;;;3.63;;
40116;SDS011;25829;50.228;18.936;2023-06-19T16:07:22;4.15;;;3.60;;
40116;SDS011;25829;50.228;18.936;2023-06-19T16:10:23;4.25;;;3.58;;
40116;SDS011;25829;50.228;18.936;2023-06-19T16:13:26;6.53;;;3.60;;
40116;SDS011;25829;50.228;18.936;2023-06-19T16:16:30;4.70;;;4.00;;
40116;SDS011;25829;50.228;18.936;2023-06-19T16:19:31;4.70;;;3.63;;
40116;SDS011;25829;50.228;18.936;2023-06-19T16:23:25;4.78;;;3.80;;
40116;SDS011;25829;50.228;18.936;2023-06-19T16:26:26;3.03;;;2.80;;
40116;SDS011;25829;50.228;18.936;2023-06-19T16:29:28;3.67;;;3.38;;
40116;SDS011;25829;50.228;18.936;2023-06-19T16:32:29;4.30;;;3.60;;
40116;SDS011;25829;50.228;18.936;2023-06-19T16:35:29;3.53;;;3.22;;
40116;SDS011;25829;50.228;18.936;2023-06-19T16:38:31;5.35;;;3.53;;
40116;SDS011;25829;50.228;18.936;2023-06-19T16:41:31;5.18;;;3.25;;
40116;SDS011;25829;50.228;18.936;2023-06-19T16:44:35;4.78;;;3.90;;
40116;SDS011;25829;50.228;18.936;2023-06-19T16:47:36;3.83;;;3.53;;
40116;SDS011;25829;50.228;18.936;2023-06-19T16:50:37;4.75;;;3.83;;
40116;SDS011;25829;50.228;18.936;2023-06-19T16:53:39;4.10;;;3.80;;
40116;SDS011;25829;50.228;18.936;2023-06-19T16:56:39;4.63;;;4.05;;
40116;SDS011;25829;50.228;18.936;2023-06-19T16:59:40;5.03;;;4.43;;
40116;SDS011;25829;50.228;18.936;2023-06-19T17:02:50;5.10;;;4.60;;
40116;SDS011;25829;50.228;18.936;2023-06-19T17:05:55;5.07;;;4.30;;
40116;SDS011;25829;50.228;18.936;2023-06-19T17:08:56;5.57;;;4.05;;
40116;SDS011;25829;50.228;18.936;2023-06-19T17:12:06;6.70;;;5.18;;
40116;SDS011;25829;50.228;18.936;2023-06-19T17:26:13;5.85;;;4.40;;
40116;SDS011;25829;50.228;18.936;2023-06-19T17:29:14;5.95;;;4.38;;
40116;SDS011;25829;50.228;18.936;2023-06-19T17:32:14;4.15;;;3.75;;
40116;SDS011;25829;50.228;18.936;2023-06-19T17:35:16;8.68;;;4.05;;
40116;SDS011;25829;50.228;18.936;2023-06-19T17:38:17;4.72;;;4.30;;
40116;SDS011;25829;50.228;18.936;2023-06-19T17:41:18;4.90;;;4.40;;
40116;SDS011;25829;50.228;18.936;2023-06-19T17:44:18;5.45;;;4.95;;
40116;SDS011;25829;50.228;18.936;2023-06-19T17:47:25;5.00;;;4.60;;
40116;SDS011;25829;50.228;18.936;2023-06-19T17:50:26;6.45;;;4.43;;
40116;SDS011;25829;50.228;18.936;2023-06-19T18:00:23;8.02;;;3.90;;
40116;SDS011;25829;50.228;18.936;2023-06-19T18:03:23;6.10;;;4.15;;
40116;SDS011;25829;50.228;18.936;2023-06-19T18:09:34;5.38;;;4.65;;
40116;SDS011;25829;50.228;18.936;2023-06-19T18:12:35;5.25;;;4.72;;
40116;SDS011;25829;50.228;18.936;2023-06-19T18:15:36;7.72;;;4.50;;
40116;SDS011;25829;50.228;18.936;2023-06-19T18:18:36;7.35;;;5.35;;
40116;SDS011;25829;50.228;18.936;2023-06-19T18:21:37;5.70;;;5.03;;
40116;SDS011;25829;50.228;18.936;2023-06-19T18:24:38;7.60;;;5.05;;
40116;SDS011;25829;50.228;18.936;2023-06-19T18:27:39;9.68;;;5.05;;
40116;SDS011;25829;50.228;18.936;2023-06-19T18:30:40;5.60;;;5.10;;
40116;SDS011;25829;50.228;18.936;2023-06-19T18:36:59;8.07;;;5.47;;
40116;SDS011;25829;50.228;18.936;2023-06-19T18:40:00;8.35;;;4.80;;
40116;SDS011;25829;50.228;18.936;2023-06-19T18:43:00;6.50;;;5.25;;
40116;SDS011;25829;50.228;18.936;2023-06-19T18:46:01;6.28;;;5.50;;
40116;SDS011;25829;50.228;18.936;2023-06-19T18:49:02;8.25;;;5.13;;
40116;SDS011;25829;50.228;18.936;2023-06-19T18:52:03;6.10;;;5.07;;
40116;SDS011;25829;50.228;18.936;2023-06-19T18:55:04;6.60;;;5.63;;
40116;SDS011;25829;50.228;18.936;2023-06-19T18:58:05;6.85;;;5.32;;
40116;SDS011;25829;50.228;18.936;2023-06-19T19:01:06;7.90;;;6.15;;
40116;SDS011;25829;50.228;18.936;2023-06-19T19:04:07;6.32;;;5.72;;
40116;SDS011;25829;50.228;18.936;2023-06-19T19:07:08;8.93;;;5.53;;
40116;SDS011;25829;50.228;18.936;2023-06-19T19:10:09;6.55;;;5.72;;
40116;SDS011;25829;50.228;18.936;2023-06-19T19:13:10;7.22;;;5.80;;
40116;SDS011;25829;50.228;18.936;2023-06-19T19:16:11;9.48;;;5.10;;
40116;SDS011;25829;50.228;18.936;2023-06-19T19:19:15;6.20;;;5.20;;
40116;SDS011;25829;50.228;18.936;2023-06-19T19:22:16;8.18;;;5.57;;
40116;SDS011;25829;50.228;18.936;2023-06-19T19:25:16;5.93;;;5.30;;
40116;SDS011;25829;50.228;18.936;2023-06-19T19:28:17;6.55;;;5.72;;
40116;SDS011;25829;50.228;18.936;2023-06-19T19:31:21;9.85;;;5.63;;
40116;SDS011;25829;50.228;18.936;2023-06-19T19:34:22;9.02;;;5.30;;
40116;SDS011;25829;50.228;18.936;2023-06-19T19:37:24;6.70;;;5.50;;
40116;SDS011;25829;50.228;18.936;2023-06-19T19:40:28;6.85;;;5.43;;
40116;SDS011;25829;50.228;18.936;2023-06-19T19:43:31;6.18;;;5.60;;
40116;SDS011;25829;50.228;18.936;2023-06-19T19:46:32;6.50;;;5.45;;
40116;SDS011;25829;50.228;18.936;2023-06-19T19:49:34;6.07;;;5.47;;
40116;SDS011;25829;50.228;18.936;2023-06-19T19:52:34;6.30;;;5.70;;
40116;SDS011;25829;50.228;18.936;2023-06-19T19:55:35;7.60;;;5.65;;
40116;SDS011;25829;50.228;18.936;2023-06-19T19:58:36;9.23;;;5.53;;
40116;SDS011;25829;50.228;18.936;2023-06-19T20:01:37;6.00;;;5.40;;
40116;SDS011;25829;50.228;18.936;2023-06-19T20:04:38;6.00;;;5.45;;
40116;SDS011;25829;50.228;18.936;2023-06-19T20:07:39;6.47;;;5.82;;
40116;SDS011;25829;50.228;18.936;2023-06-19T20:10:39;6.65;;;6.00;;
40116;SDS011;25829;50.228;18.936;2023-06-19T20:13:40;6.70;;;6.00;;
40116;SDS011;25829;50.228;18.936;2023-06-19T20:16:41;7.53;;;5.80;;
40116;SDS011;25829;50.228;18.936;2023-06-19T20:19:42;8.10;;;6.30;;
40116;SDS011;25829;50.228;18.936;2023-06-19T20:22:42;10.05;;;6.85;;
40116;SDS011;25829;50.228;18.936;2023-06-19T20:25:43;12.35;;;6.10;;
40116;SDS011;25829;50.228;18.936;2023-06-19T20:28:45;7.10;;;6.40;;
40116;SDS011;25829;50.228;18.936;2023-06-19T20:31:48;11.25;;;6.05;;
40116;SDS011;25829;50.228;18.936;2023-06-19T20:34:49;9.55;;;6.28;;
40116;SDS011;25829;50.228;18.936;2023-06-19T20:37:50;8.50;;;6.15;;
40116;SDS011;25829;50.228;18.936;2023-06-19T20:40:50;7.75;;;6.32;;
40116;SDS011;25829;50.228;18.936;2023-06-19T20:43:51;7.45;;;6.32;;
40116;SDS011;25829;50.228;18.936;2023-06-19T20:46:52;9.05;;;6.28;;
40116;SDS011;25829;50.228;18.936;2023-06-19T20:49:53;10.65;;;6.05;;
40116;SDS011;25829;50.228;18.936;2023-06-19T20:52:53;12.85;;;6.30;;
40116;SDS011;25829;50.228;18.936;2023-06-19T20:55:54;10.15;;;6.50;;
40116;SDS011;25829;50.228;18.936;2023-06-19T20:58:55;14.15;;;6.35;;
40116;SDS011;25829;50.228;18.936;2023-06-19T21:01:58;11.77;;;6.65;;
40116;SDS011;25829;50.228;18.936;2023-06-19T21:05:00;10.77;;;6.90;;
40116;SDS011;25829;50.228;18.936;2023-06-19T21:08:01;13.50;;;7.28;;